Time;durP1;ratioP1;P1;durP2;ratioP2;P2;SDS_P1;SDS_P2;PMS_P1;PMS_P2;Temp;Humidity;BMP_temperature;BMP_pressure;BME280_temperature;BME280_humidity;BME280_pressure;Samples;Min_cycle;Max_cycle;Signal;HPM_P1;HPM_P2
2022/06/28 00:01:41;;;;;;;;;;;;;;;;;;5018893;28;6992;-85
2022/06/28 00:04:07;;;;;;;;;;;;;;;;;;5018773;28;8439;-85
2022/06/28 00:06:33;;;;;;;;;;;;;;;;;;5019108;28;7428;-85
2022/06/28 00:08:59;;;;;;;;;;;;;;;;;;5018423;28;8776;-85
2022/06/28 00:11:25;;;;;;;;;;;;;;;;;;5018654;28;6987;-85
2022/06/28 00:13:51;;;;;;;;;;;;;;;;;;5018555;28;8664;-85
2022/06/28 00:16:19;;;;;;;;;;;;;;;;;;5018744;28;7060;-85
2022/06/28 00:18:45;;;;;;;;;;;;;;;;;;5018619;28;7019;-85
2022/06/28 00:21:11;;;;;;;;;;;;;;;;;;5018634;28;8408;-85
2022/06/28 00:23:39;;;;;;;;;;;;;;;;;;5018137;28;8845;-85
2022/06/28 00:26:05;;;;;;;;;;;;;;;;;;5018936;28;7115;-85
2022/06/28 00:28:31;;;;;;;;;;;;;;;;;;5017788;28;7173;-84
2022/06/28 00:30:57;;;;;;;;;;;;;;;;;;5018431;28;7114;-85
2022/06/28 00:33:22;;;;;;;;;;;;;;;;;;5018304;28;8338;-85
2022/06/28 00:35:48;;;;;;;;;;;;;;;;;;5017740;28;7072;-84
2022/06/28 00:38:14;;;;;;;;;;;;;;;;;;5018243;28;8666;-84
2022/06/28 00:40:47;;;;;;;;;;;;;;;;;;5017979;28;8482;-84
2022/06/28 00:43:14;;;;;;;;;;;;;;;;;;5018036;28;8636;-85
2022/06/28 00:45:41;;;;;;;;;;;;;;;;;;5018361;28;7236;-84
2022/06/28 00:48:07;;;;;;;;;;;;;;;;;;5016761;28;7322;-84
2022/06/28 00:50:34;;;;;;;;;;;;;;;;;;5017736;28;7127;-85
2022/06/28 00:53:01;;;;;;;;;;;;;;;;;;5017929;28;7008;-85
2022/06/28 00:55:27;;;;;;;;;;;;;;;;;;5017712;28;8788;-85
2022/06/28 00:57:53;;;;;;;;;;;;;;;;;;5018282;28;7384;-85
2022/06/28 01:00:18;;;;;;;;;;;;;;;;;;5017730;28;7125;-85
2022/06/28 01:02:44;;;;;;;;;;;;;;;;;;5017081;28;7014;-84
2022/06/28 01:05:10;;;;;;;;;;;;;;;;;;5018057;28;8681;-85
2022/06/28 01:07:35;;;;;;;;;;;;;;;;;;5017322;28;6810;-85
2022/06/28 01:10:01;;;;;;;;;;;;;;;;;;5017447;28;8608;-86
2022/06/28 01:12:26;;;;;;;;;;;;;;;;;;5017425;28;7062;-85
2022/06/28 01:14:52;;;;;;;;;;;;;;;;;;5017350;28;8285;-85
2022/06/28 01:17:17;;;;;;;;;;;;;;;;;;5017470;28;7137;-85
2022/06/28 01:19:43;;;;;;;;;;;;;;;;;;5017085;28;7974;-85
2022/06/28 01:22:10;;;;;;;;;;;;;;;;;;5017335;28;8413;-85
2022/06/28 01:24:36;;;;;;;;;;;;;;;;;;5017420;28;8789;-85
2022/06/28 01:27:02;;;;;;;;;;;;;;;;;;5016939;28;8384;-85
2022/06/28 01:29:28;;;;;;;;;;;;;;;;;;5017413;28;8726;-85
2022/06/28 01:31:54;;;;;;;;;;;;;;;;;;5017122;28;8257;-85
2022/06/28 01:34:21;;;;;;;;;;;;;;;;;;5016937;28;8690;-86
2022/06/28 01:36:46;;;;;;;;;;;;;;;;;;5016804;28;8495;-85
2022/06/28 01:39:13;;;;;;;;;;;;;;;;;;5016886;28;8418;-85
2022/06/28 01:41:38;;;;;;;;;;;;;;;;;;5017305;28;8503;-84
2022/06/28 01:44:06;;;;;;;;;;;;;;;;;;5017265;28;7085;-84
2022/06/28 01:46:36;;;;;;;;;;;;;;;;;;5016815;28;8721;-85
2022/06/28 01:49:02;;;;;;;;;;;;;;;;;;5017100;28;7438;-85
2022/06/28 01:51:28;;;;;;;;;;;;;;;;;;5017161;28;8717;-85
2022/06/28 01:53:53;;;;;;;;;;;;;;;;;;5016848;28;8425;-85
2022/06/28 01:56:19;;;;;;;;;;;;;;;;;;5017487;28;7411;-85
2022/06/28 01:58:45;;;;;;;;;;;;;;;;;;5016953;28;6998;-85
2022/06/28 02:01:11;;;;;;;;;;;;;;;;;;5020844;28;8437;-85
2022/06/28 02:03:36;;;;;;;;;;;;;;;;;;5020580;28;8602;-82
2022/06/28 02:06:02;;;;;;;;;;;;;;;;;;5037016;28;7152;-81
2022/06/28 02:08:27;;;;;;;;;;;;;;;;;;5037458;28;8390;-81
2022/06/28 02:10:56;;;;;;;;;;;;;;;;;;5037524;28;8409;-82
2022/06/28 02:13:22;;;;;;;;;;;;;;;;;;5036753;28;7138;-81
2022/06/28 02:15:47;;;;;;;;;;;;;;;;;;5037063;28;8407;-81
2022/06/28 02:18:13;;;;;;;;;;;;;;;;;;5037046;28;8394;-82
2022/06/28 02:20:38;;;;;;;;;;;;;;;;;;5036773;28;8381;-81
2022/06/28 02:23:04;;;;;;;;;;;;;;;;;;5037335;28;8458;-80
2022/06/28 02:25:29;;;;;;;;;;;;;;;;;;5036896;28;7127;-80
2022/06/28 02:27:55;;;;;;;;;;;;;;;;;;5036636;28;7326;-79
2022/06/28 02:30:21;;;;;;;;;;;;;;;;;;5037750;28;6976;-81
2022/06/28 02:32:47;;;;;;;;;;;;;;;;;;5036511;28;8710;-80
2022/06/28 02:40:40;;;;;;;;;;;;;;;;;;5038004;28;6798;-79
2022/06/28 02:43:06;;;;;;;;;;;;;;;;;;5036504;28;6993;-79
2022/06/28 02:45:34;;;;;;;;;;;;;;;;;;5020821;28;8702;-80
2022/06/28 02:48:00;;;;;;;;;;;;;;;;;;5019466;28;8314;-80
2022/06/28 02:50:25;;;;;;;;;;;;;;;;;;5020138;28;7091;-81
2022/06/28 02:52:51;;;;;;;;;;;;;;;;;;5020111;28;8419;-79
2022/06/28 02:55:17;;;;;;;;;;;;;;;;;;5020158;28;7207;-80
2022/06/28 02:57:43;;;;;;;;;;;;;;;;;;5019661;28;8428;-80
2022/06/28 03:00:14;;;;;;;;;;;;;;;;;;5020331;28;7006;-80
2022/06/28 03:02:41;;;;;;;;;;;;;;;;;;5020297;28;7254;-80
2022/06/28 03:05:08;;;;;;;;;;;;;;;;;;5019819;28;8372;-80
2022/06/28 03:07:34;;;;;;;;;;;;;;;;;;5019919;28;7468;-80
2022/06/28 03:10:00;;;;;;;;;;;;;;;;;;5019787;28;8485;-80
2022/06/28 03:12:26;;;;;;;;;;;;;;;;;;5018741;28;8500;-79
2022/06/28 03:14:52;;;;;;;;;;;;;;;;;;5019617;28;8355;-80
2022/06/28 03:17:17;;;;;;;;;;;;;;;;;;5035802;28;8452;-80
2022/06/28 03:19:43;;;;;;;;;;;;;;;;;;5035878;28;7184;-80
2022/06/28 03:22:08;;;;;;;;;;;;;;;;;;5019854;28;7215;-80
2022/06/28 03:24:34;;;;;;;;;;;;;;;;;;5019722;28;6963;-79
2022/06/28 03:26:59;;;;;;;;;;;;;;;;;;5010687;28;7316;-82
2022/06/28 03:29:25;;;;;;;;;;;;;;;;;;4995525;28;8506;-80
2022/06/28 03:31:50;;;;;;;;;;;;;;;;;;4995806;28;7473;-84
2022/06/28 03:34:16;;;;;;;;;;;;;;;;;;4995871;28;7162;-83
2022/06/28 03:36:42;;;;;;;;;;;;;;;;;;4995528;28;7049;-83
2022/06/28 03:39:07;;;;;;;;;;;;;;;;;;4996276;28;7140;-83
2022/06/28 03:41:33;;;;;;;;;;;;;;;;;;4995668;28;6981;-84
2022/06/28 03:43:59;;;;;;;;;;;;;;;;;;4992538;28;8612;-83
2022/06/28 03:46:25;;;;;;;;;;;;;;;;;;4995346;28;9314;-83
2022/06/28 03:48:50;;;;;;;;;;;;;;;;;;4993707;28;7040;-84
2022/06/28 03:51:16;;;;;;;;;;;;;;;;;;4995710;28;7002;-83
2022/06/28 03:53:41;;;;;;;;;;;;;;;;;;4995206;28;8408;-83
2022/06/28 03:56:07;;;;;;;;;;;;;;;;;;4995277;28;8929;-83
2022/06/28 03:58:34;;;;;;;;;;;;;;;;;;4993821;28;7173;-83
2022/06/28 04:00:59;;;;;;;;;;;;;;;;;;4992966;28;8503;-84
2022/06/28 04:03:25;;;;;;;;;;;;;;;;;;4995234;28;7348;-83
2022/06/28 04:05:51;;;;;;;;;;;;;;;;;;4994851;28;8439;-84
2022/06/28 04:08:16;;;;;;;;;;;;;;;;;;4992631;28;8407;-83
2022/06/28 04:10:43;;;;;;;;;;;;;;;;;;4993383;28;8426;-84
2022/06/28 04:13:09;;;;;;;;;;;;;;;;;;4994858;28;8421;-84
2022/06/28 04:15:35;;;;;;;;;;;;;;;;;;4994945;28;7189;-83
2022/06/28 04:18:01;;;;;;;;;;;;;;;;;;4993227;28;6844;-83
2022/06/28 04:20:26;;;;;;;;;;;;;;;;;;4993687;28;7237;-83
2022/06/28 04:22:52;;;;;;;;;;;;;;;;;;4994609;28;7102;-83
2022/06/28 04:25:17;;;;;;;;;;;;;;;;;;4994563;28;8322;-83
2022/06/28 04:27:43;;;;;;;;;;;;;;;;;;5007520;28;7168;-83
2022/06/28 04:30:09;;;;;;;;;;;;;;;;;;5034163;28;8449;-84
2022/06/28 04:32:35;;;;;;;;;;;;;;;;;;5017116;28;8404;-83
2022/06/28 04:35:01;;;;;;;;;;;;;;;;;;5034049;28;8705;-83
2022/06/28 04:37:27;;;;;;;;;;;;;;;;;;5008910;28;7030;-84
2022/06/28 04:39:52;;;;;;;;;;;;;;;;;;5041915;28;7021;-84
2022/06/28 04:42:18;;;;;;;;;;;;;;;;;;5033532;28;7003;-84
2022/06/28 04:44:44;;;;;;;;;;;;;;;;;;5008669;28;8650;-84
2022/06/28 04:47:11;;;;;;;;;;;;;;;;;;5041209;28;7729;-84
2022/06/28 04:49:37;;;;;;;;;;;;;;;;;;5005957;28;8408;-83
2022/06/28 04:52:03;;;;;;;;;;;;;;;;;;5013380;28;8423;-84
2022/06/28 04:54:28;;;;;;;;;;;;;;;;;;5033303;28;7250;-84
2022/06/28 04:56:54;;;;;;;;;;;;;;;;;;5009043;28;7015;-84
2022/06/28 04:59:20;;;;;;;;;;;;;;;;;;5008523;28;8769;-84
2022/06/28 05:01:46;;;;;;;;;;;;;;;;;;5040712;28;7289;-84
2022/06/28 05:04:12;;;;;;;;;;;;;;;;;;5033392;28;9426;-84
2022/06/28 05:06:38;;;;;;;;;;;;;;;;;;5033372;28;8740;-84
2022/06/28 05:09:04;;;;;;;;;;;;;;;;;;5011263;28;8917;-84
2022/06/28 05:11:29;;;;;;;;;;;;;;;;;;5041223;28;8469;-84
2022/06/28 05:13:56;;;;;;;;;;;;;;;;;;5008935;28;8408;-83
2022/06/28 05:16:21;;;;;;;;;;;;;;;;;;5030432;28;7017;-84
2022/06/28 05:18:47;;;;;;;;;;;;;;;;;;4997383;28;7099;-84
2022/06/28 05:21:13;;;;;;;;;;;;;;;;;;4997340;28;8705;-83
2022/06/28 05:23:39;;;;;;;;;;;;;;;;;;4997515;28;6852;-84
2022/06/28 05:26:04;;;;;;;;;;;;;;;;;;4999402;28;9287;-81
2022/06/28 05:28:30;;;;;;;;;;;;;;;;;;5014948;28;8666;-83
2022/06/28 05:30:55;;;;;;;;;;;;;;;;;;5012154;28;7262;-82
2022/06/28 05:33:21;;;;;;;;;;;;;;;;;;4995796;28;8758;-81
2022/06/28 05:35:46;;;;;;;;;;;;;;;;;;5041514;28;7152;-81
2022/06/28 05:38:12;;;;;;;;;;;;;;;;;;5006902;28;7007;-81
2022/06/28 05:40:37;;;;;;;;;;;;;;;;;;5029053;28;8714;-83
2022/06/28 05:43:03;;;;;;;;;;;;;;;;;;5006060;28;8294;-81
2022/06/28 05:45:28;;;;;;;;;;;;;;;;;;5031157;28;8742;-86
2022/06/28 05:47:54;;;;;;;;;;;;;;;;;;5008458;28;8402;-85
2022/06/28 05:50:19;;;;;;;;;;;;;;;;;;4962420;28;12007;-86
2022/06/28 05:52:47;;;;;;;;;;;;;;;;;;4964681;28;8731;-85
2022/06/28 05:55:13;;;;;;;;;;;;;;;;;;4989775;28;7033;-85
2022/06/28 05:57:39;;;;;;;;;;;;;;;;;;4989660;28;7377;-85
2022/06/28 06:00:06;;;;;;;;;;;;;;;;;;4989918;28;7390;-85
2022/06/28 06:02:31;;;;;;;;;;;;;;;;;;4989846;28;8397;-85
2022/06/28 06:04:59;;;;;;;;;;;;;;;;;;4989701;28;7001;-86
2022/06/28 06:07:25;;;;;;;;;;;;;;;;;;4989709;28;8455;-85
2022/06/28 06:09:50;;;;;;;;;;;;;;;;;;4992225;28;8401;-85
2022/06/28 06:12:16;;;;;;;;;;;;;;;;;;4975490;28;8392;-86
2022/06/28 06:14:42;;;;;;;;;;;;;;;;;;4976712;28;7122;-86
2022/06/28 06:17:08;;;;;;;;;;;;;;;;;;4976761;28;7217;-86
2022/06/28 06:19:34;;;;;;;;;;;;;;;;;;4941781;28;12482;-86
2022/06/28 06:21:59;;;;;;;;;;;;;;;;;;4980348;28;8406;-86
2022/06/28 06:24:25;;;;;;;;;;;;;;;;;;4977025;28;8439;-85
2022/06/28 06:26:50;;;;;;;;;;;;;;;;;;4982541;28;8366;-86
2022/06/28 06:29:16;;;;;;;;;;;;;;;;;;5009140;28;7008;-86
2022/06/28 06:31:41;;;;;;;;;;;;;;;;;;5009576;28;8383;-86
2022/06/28 06:34:07;;;;;;;;;;;;;;;;;;5007622;28;8394;-86
2022/06/28 06:36:32;;;;;;;;;;;;;;;;;;5009032;28;7309;-86
2022/06/28 06:38:58;;;;;;;;;;;;;;;;;;5008730;28;8404;-87
2022/06/28 06:41:24;;;;;;;;;;;;;;;;;;5008900;28;8350;-87
2022/06/28 06:43:49;;;;;;;;;;;;;;;;;;5009087;28;8397;-87
2022/06/28 06:46:15;;;;;;;;;;;;;;;;;;5009741;28;7688;-86
2022/06/28 06:48:40;;;;;;;;;;;;;;;;;;5012206;28;8401;-86
2022/06/28 06:51:06;;;;;;;;;;;;;;;;;;5013102;28;7031;-86
2022/06/28 06:53:31;;;;;;;;;;;;;;;;;;5012353;28;8716;-86
2022/06/28 06:55:57;;;;;;;;;;;;;;;;;;5012670;28;8734;-87
2022/06/28 06:58:22;;;;;;;;;;;;;;;;;;5012509;28;7017;-87
2022/06/28 07:00:49;;;;;;;;;;;;;;;;;;5014044;28;7127;-86
2022/06/28 07:03:15;;;;;;;;;;;;;;;;;;5006196;28;7425;-86
2022/06/28 07:05:40;;;;;;;;;;;;;;;;;;4993236;28;8387;-86
2022/06/28 07:08:06;;;;;;;;;;;;;;;;;;4993087;28;8620;-87
2022/06/28 07:10:31;;;;;;;;;;;;;;;;;;4992557;28;7329;-87
2022/06/28 07:12:57;;;;;;;;;;;;;;;;;;4996081;28;8401;-87
2022/06/28 07:15:22;;;;;;;;;;;;;;;;;;4996554;28;6845;-87
2022/06/28 07:17:48;;;;;;;;;;;;;;;;;;4983059;28;8396;-86
2022/06/28 07:20:13;;;;;;;;;;;;;;;;;;4977428;28;8607;-87
2022/06/28 07:22:39;;;;;;;;;;;;;;;;;;4976825;28;7110;-86
2022/06/28 07:25:05;;;;;;;;;;;;;;;;;;4978036;28;8434;-85
2022/06/28 07:27:30;;;;;;;;;;;;;;;;;;4976680;28;8395;-85
2022/06/28 07:29:56;;;;;;;;;;;;;;;;;;4976744;28;8624;-85
2022/06/28 07:32:21;;;;;;;;;;;;;;;;;;4976703;28;8546;-85
2022/06/28 07:34:46;;;;;;;;;;;;;;;;;;4977045;28;8678;-85
2022/06/28 07:37:12;;;;;;;;;;;;;;;;;;4976298;28;8444;-85
2022/06/28 07:39:38;;;;;;;;;;;;;;;;;;4975576;28;8426;-84
2022/06/28 07:42:04;;;;;;;;;;;;;;;;;;4976519;28;8429;-85
2022/06/28 07:44:30;;;;;;;;;;;;;;;;;;4976743;28;8384;-85
2022/06/28 07:46:55;;;;;;;;;;;;;;;;;;4977301;28;8365;-84
2022/06/28 07:49:21;;;;;;;;;;;;;;;;;;4976284;28;8399;-84
2022/06/28 07:54:50;;;;;;;;;;;;;;;;;;4922671;29;7173;-85
2022/06/28 07:57:16;;;;;;;;;;;;;;;;;;4936399;29;8438;-84
2022/06/28 07:59:41;;;;;;;;;;;;;;;;;;4937007;29;8706;-86
2022/06/28 08:02:07;;;;;;;;;;;;;;;;;;4937056;29;6999;-85
2022/06/28 08:04:32;;;;;;;;;;;;;;;;;;4937065;29;8401;-86
2022/06/28 08:06:58;;;;;;;;;;;;;;;;;;4922169;29;8680;-85
2022/06/28 08:09:24;;;;;;;;;;;;;;;;;;4936882;29;8527;-85
2022/06/28 08:11:49;;;;;;;;;;;;;;;;;;4927475;29;8633;-84
2022/06/28 08:14:15;;;;;;;;;;;;;;;;;;4930155;29;8411;-85
2022/06/28 08:16:40;;;;;;;;;;;;;;;;;;4917818;29;8429;-86
2022/06/28 08:19:06;;;;;;;;;;;;;;;;;;4917533;29;8416;-85
2022/06/28 08:21:31;;;;;;;;;;;;;;;;;;4917515;29;7691;-85
2022/06/28 08:23:57;;;;;;;;;;;;;;;;;;4917456;29;7350;-85
2022/06/28 08:26:22;;;;;;;;;;;;;;;;;;4962888;28;8422;-83
2022/06/28 08:28:48;;;;;;;;;;;;;;;;;;4959441;28;8364;-83
2022/06/28 08:31:13;;;;;;;;;;;;;;;;;;4959180;28;8606;-84
2022/06/28 08:33:39;;;;;;;;;;;;;;;;;;4959515;28;8446;-86
2022/06/28 08:36:05;;;;;;;;;;;;;;;;;;4959415;28;8808;-87
2022/06/28 08:38:30;;;;;;;;;;;;;;;;;;4959345;28;8453;-92
2022/06/28 08:40:57;;;;;;;;;;;;;;;;;;4959399;28;8744;-89
2022/06/28 08:43:23;;;;;;;;;;;;;;;;;;4959315;28;8432;-86
2022/06/28 08:45:49;;;;;;;;;;;;;;;;;;4961536;28;7072;-86
2022/06/28 08:48:21;;;;;;;;;;;;;;;;;;4993509;28;8461;-86
2022/06/28 08:50:51;;;;;;;;;;;;;;;;;;4992841;28;9270;-86
2022/06/28 08:53:20;;;;;;;;;;;;;;;;;;4992061;28;8533;-86
2022/06/28 08:55:47;;;;;;;;;;;;;;;;;;4976224;28;7089;-85
2022/06/28 08:58:12;;;;;;;;;;;;;;;;;;4983592;28;8760;-85
2022/06/28 09:00:38;;;;;;;;;;;;;;;;;;4975854;28;7057;-85
2022/06/28 09:03:03;;;;;;;;;;;;;;;;;;4975704;28;8376;-86
2022/06/28 09:05:29;;;;;;;;;;;;;;;;;;4975182;28;8609;-85
2022/06/28 09:07:56;;;;;;;;;;;;;;;;;;4975370;28;8413;-85
2022/06/28 09:10:23;;;;;;;;;;;;;;;;;;4975384;28;7150;-86
2022/06/28 09:12:55;;;;;;;;;;;;;;;;;;4975787;28;8426;-85
2022/06/28 09:15:25;;;;;;;;;;;;;;;;;;4975231;28;8859;-86
2022/06/28 09:17:54;;;;;;;;;;;;;;;;;;4975476;28;8459;-86
2022/06/28 09:20:34;;;;;;;;;;;;;;;;;;4975526;28;8829;-85
2022/06/28 09:22:59;;;;;;;;;;;;;;;;;;4975683;28;8520;-86
2022/06/28 09:25:27;;;;;;;;;;;;;;;;;;4975676;28;8439;-86
2022/06/28 09:27:57;;;;;;;;;;;;;;;;;;4975452;28;8452;-87
2022/06/28 09:30:25;;;;;;;;;;;;;;;;;;4975513;28;8851;-85
2022/06/28 09:32:50;;;;;;;;;;;;;;;;;;4975403;28;7128;-86
2022/06/28 09:35:16;;;;;;;;;;;;;;;;;;4975623;28;8404;-85
2022/06/28 09:37:50;;;;;;;;;;;;;;;;;;4974495;28;8664;-86
2022/06/28 09:40:18;;;;;;;;;;;;;;;;;;4976026;28;7402;-86
2022/06/28 09:42:45;;;;;;;;;;;;;;;;;;4977486;28;8430;-86
2022/06/28 09:45:12;;;;;;;;;;;;;;;;;;4976620;28;8560;-86
2022/06/28 09:47:46;;;;;;;;;;;;;;;;;;4976261;28;8811;-85
2022/06/28 09:50:13;;;;;;;;;;;;;;;;;;4976889;28;7078;-85
2022/06/28 09:52:42;;;;;;;;;;;;;;;;;;4976688;28;8467;-86
2022/06/28 09:55:08;;;;;;;;;;;;;;;;;;4976889;28;8485;-85
2022/06/28 09:57:34;;;;;;;;;;;;;;;;;;4976193;28;8857;-87
2022/06/28 10:00:01;;;;;;;;;;;;;;;;;;4977230;28;8625;-86
2022/06/28 10:02:27;;;;;;;;;;;;;;;;;;4977306;28;8462;-87
2022/06/28 10:04:52;;;;;;;;;;;;;;;;;;4977889;28;8531;-87
2022/06/28 10:07:19;;;;;;;;;;;;;;;;;;4977553;28;8374;-87
2022/06/28 10:09:45;;;;;;;;;;;;;;;;;;4977260;28;9011;-87
2022/06/28 10:15:01;;;;;;;;;;;;;;;;;;4995377;28;6958;-86
2022/06/28 10:17:36;;;;;;;;;;;;;;;;;;4977528;28;8773;-86
2022/06/28 10:20:07;;;;;;;;;;;;;;;;;;4978208;28;8433;-86
2022/06/28 10:22:32;;;;;;;;;;;;;;;;;;4981018;28;9686;-87
2022/06/28 10:25:03;;;;;;;;;;;;;;;;;;4981788;28;8511;-86
2022/06/28 10:27:29;;;;;;;;;;;;;;;;;;4980960;28;7200;-87
2022/06/28 10:29:58;;;;;;;;;;;;;;;;;;4981640;28;8779;-87
2022/06/28 10:32:40;;;;;;;;;;;;;;;;;;4980969;28;8535;-87
2022/06/28 10:35:06;;;;;;;;;;;;;;;;;;4980959;28;8700;-86
2022/06/28 10:37:32;;;;;;;;;;;;;;;;;;4980402;28;7624;-86
2022/06/28 10:40:36;;;;;;;;;;;;;;;;;;4980180;28;8776;-86
2022/06/28 10:43:01;;;;;;;;;;;;;;;;;;4959281;28;8490;-87
2022/06/28 10:45:47;;;;;;;;;;;;;;;;;;4975120;28;7245;-86
2022/06/28 10:48:13;;;;;;;;;;;;;;;;;;4974370;28;8705;-87
2022/06/28 10:51:18;;;;;;;;;;;;;;;;;;4976583;28;8934;-87
2022/06/28 10:53:55;;;;;;;;;;;;;;;;;;4919156;29;9303;-86
2022/06/28 10:56:22;;;;;;;;;;;;;;;;;;4903351;29;8750;-87
2022/06/28 10:58:56;;;;;;;;;;;;;;;;;;4903380;29;8441;-86
2022/06/28 11:01:39;;;;;;;;;;;;;;;;;;4903231;29;7206;-87
2022/06/28 11:04:11;;;;;;;;;;;;;;;;;;4903238;29;8616;-86
2022/06/28 11:06:44;;;;;;;;;;;;;;;;;;4903089;29;8877;-87
2022/06/28 11:09:15;;;;;;;;;;;;;;;;;;4903170;29;8472;-87
2022/06/28 11:11:59;;;;;;;;;;;;;;;;;;4903069;29;8491;-87
2022/06/28 11:14:34;;;;;;;;;;;;;;;;;;4903010;29;8532;-86
2022/06/28 11:17:00;;;;;;;;;;;;;;;;;;4902886;29;8545;-86
2022/06/28 11:19:26;;;;;;;;;;;;;;;;;;4902664;29;7161;-86
2022/06/28 11:21:53;;;;;;;;;;;;;;;;;;4903166;29;8528;-87
2022/06/28 11:24:19;;;;;;;;;;;;;;;;;;4936588;28;6896;-86
2022/06/28 11:29:29;;;;;;;;;;;;;;;;;;4997302;28;6850;-87
2022/06/28 11:31:54;;;;;;;;;;;;;;;;;;4979265;28;8468;-87
2022/06/28 11:34:25;;;;;;;;;;;;;;;;;;4979889;28;8831;-86
2022/06/28 11:36:56;;;;;;;;;;;;;;;;;;4978810;28;8887;-87
2022/06/28 11:39:23;;;;;;;;;;;;;;;;;;4979738;28;8868;-87
2022/06/28 11:41:51;;;;;;;;;;;;;;;;;;4979912;28;8464;-86
2022/06/28 11:44:18;;;;;;;;;;;;;;;;;;4979768;28;7573;-86
2022/06/28 11:46:44;;;;;;;;;;;;;;;;;;4979298;28;7381;-83
2022/06/28 11:49:10;;;;;;;;;;;;;;;;;;4974722;28;7360;-86
2022/06/28 11:51:40;;;;;;;;;;;;;;;;;;4979801;28;8599;-88
2022/06/28 11:54:07;;;;;;;;;;;;;;;;;;4979929;28;8976;-88
2022/06/28 11:56:42;;;;;;;;;;;;;;;;;;4981073;28;7069;-87
2022/06/28 11:59:08;;;;;;;;;;;;;;;;;;4979723;28;7217;-87
2022/06/28 12:01:37;;;;;;;;;;;;;;;;;;4979273;28;8478;-86
2022/06/28 12:04:06;;;;;;;;;;;;;;;;;;4978636;28;8386;-80
2022/06/28 12:06:33;;;;;;;;;;;;;;;;;;4978963;28;8771;-78
2022/06/28 12:09:02;;;;;;;;;;;;;;;;;;4979682;28;9047;-87
2022/06/28 12:11:30;;;;;;;;;;;;;;;;;;4979046;28;8459;-87
2022/06/28 12:14:04;;;;;;;;;;;;;;;;;;4979365;28;8445;-87
2022/06/28 12:16:30;;;;;;;;;;;;;;;;;;4979371;28;8497;-87
2022/06/28 12:18:57;;;;;;;;;;;;;;;;;;4978920;28;7188;-87
2022/06/28 12:21:23;;;;;;;;;;;;;;;;;;4979168;28;9139;-87
2022/06/28 12:23:53;;;;;;;;;;;;;;;;;;4978991;28;8377;-87
2022/06/28 12:26:20;;;;;;;;;;;;;;;;;;4978804;28;8884;-87
2022/06/28 12:28:45;;;;;;;;;;;;;;;;;;4978890;28;8412;-87
2022/06/28 12:31:11;;;;;;;;;;;;;;;;;;4978922;28;8811;-87
2022/06/28 12:33:37;;;;;;;;;;;;;;;;;;4978506;28;8422;-80
2022/06/28 12:36:02;;;;;;;;;;;;;;;;;;4979154;28;8612;-79
2022/06/28 12:38:28;;;;;;;;;;;;;;;;;;4978747;28;8935;-86
2022/06/28 12:40:54;;;;;;;;;;;;;;;;;;4978135;28;8750;-88
2022/06/28 12:43:20;;;;;;;;;;;;;;;;;;4978541;28;7211;-81
2022/06/28 12:45:45;;;;;;;;;;;;;;;;;;4979436;28;8981;-88
2022/06/28 12:48:10;;;;;;;;;;;;;;;;;;4978481;28;8687;-88
2022/06/28 12:50:36;;;;;;;;;;;;;;;;;;4978379;28;8446;-88
2022/06/28 12:53:02;;;;;;;;;;;;;;;;;;4978422;28;7201;-87
2022/06/28 12:55:27;;;;;;;;;;;;;;;;;;4979805;28;8583;-87
2022/06/28 12:57:53;;;;;;;;;;;;;;;;;;4978591;28;7084;-87
2022/06/28 13:00:18;;;;;;;;;;;;;;;;;;4978642;28;8492;-89
2022/06/28 13:02:44;;;;;;;;;;;;;;;;;;4978666;28;7219;-87
2022/06/28 13:05:10;;;;;;;;;;;;;;;;;;4978057;28;7079;-80
2022/06/28 13:07:41;;;;;;;;;;;;;;;;;;4978185;28;8990;-79
2022/06/28 13:10:08;;;;;;;;;;;;;;;;;;4977298;28;9153;-79
2022/06/28 13:12:34;;;;;;;;;;;;;;;;;;4977651;28;8470;-84
2022/06/28 13:15:01;;;;;;;;;;;;;;;;;;4977585;28;7349;-78
2022/06/28 13:17:26;;;;;;;;;;;;;;;;;;4977902;28;7268;-79
2022/06/28 13:19:53;;;;;;;;;;;;;;;;;;4978021;28;8442;-80
2022/06/28 13:22:18;;;;;;;;;;;;;;;;;;4977773;28;8473;-78
2022/06/28 13:24:44;;;;;;;;;;;;;;;;;;4977503;28;7211;-79
2022/06/28 13:27:09;;;;;;;;;;;;;;;;;;4974627;28;8692;-78
2022/06/28 13:29:35;;;;;;;;;;;;;;;;;;4975019;28;8675;-78
2022/06/28 13:32:00;;;;;;;;;;;;;;;;;;4973886;28;8484;-78
2022/06/28 13:34:26;;;;;;;;;;;;;;;;;;4971783;28;8558;-78
2022/06/28 13:36:51;;;;;;;;;;;;;;;;;;4974735;28;7226;-79
2022/06/28 13:39:17;;;;;;;;;;;;;;;;;;4977205;28;8552;-78
2022/06/28 13:41:42;;;;;;;;;;;;;;;;;;4975248;28;8921;-79
2022/06/28 13:44:10;;;;;;;;;;;;;;;;;;4976717;28;8715;-78
2022/06/28 13:46:35;;;;;;;;;;;;;;;;;;4976459;28;8643;-79
2022/06/28 13:49:01;;;;;;;;;;;;;;;;;;4975736;28;8478;-78
2022/06/28 13:51:28;;;;;;;;;;;;;;;;;;4977249;28;8464;-79
2022/06/28 13:53:53;;;;;;;;;;;;;;;;;;4976658;28;9423;-79
2022/06/28 13:56:19;;;;;;;;;;;;;;;;;;4979210;28;7095;-79
2022/06/28 13:58:44;;;;;;;;;;;;;;;;;;4980505;28;8441;-79
2022/06/28 14:01:10;;;;;;;;;;;;;;;;;;4980648;28;7046;-78
2022/06/28 14:03:35;;;;;;;;;;;;;;;;;;4980388;28;8611;-77
2022/06/28 14:06:01;;;;;;;;;;;;;;;;;;4980532;28;8524;-79
2022/06/28 14:08:27;;;;;;;;;;;;;;;;;;4980145;28;8914;-86
2022/06/28 14:10:53;;;;;;;;;;;;;;;;;;4980487;28;8531;-87
2022/06/28 14:13:19;;;;;;;;;;;;;;;;;;4980542;28;7295;-88
2022/06/28 14:15:46;;;;;;;;;;;;;;;;;;4979932;28;7096;-78
2022/06/28 14:18:11;;;;;;;;;;;;;;;;;;4980379;28;8460;-85
2022/06/28 14:20:37;;;;;;;;;;;;;;;;;;4980351;28;8464;-85
2022/06/28 14:23:02;;;;;;;;;;;;;;;;;;4979798;28;8750;-84
2022/06/28 14:25:28;;;;;;;;;;;;;;;;;;4979736;28;7199;-86
2022/06/28 14:27:53;;;;;;;;;;;;;;;;;;4979874;28;8609;-90
2022/06/28 14:30:19;;;;;;;;;;;;;;;;;;4981110;28;8580;-88
2022/06/28 14:32:45;;;;;;;;;;;;;;;;;;4980488;28;8658;-90
2022/06/28 14:35:11;;;;;;;;;;;;;;;;;;4979888;28;8488;-87
2022/06/28 14:37:37;;;;;;;;;;;;;;;;;;4979378;28;8689;-88
2022/06/28 14:40:04;;;;;;;;;;;;;;;;;;4980970;28;8782;-89
2022/06/28 14:42:29;;;;;;;;;;;;;;;;;;4980132;28;8600;-86
2022/06/28 14:44:55;;;;;;;;;;;;;;;;;;4980688;28;8479;-86
2022/06/28 14:47:21;;;;;;;;;;;;;;;;;;4983006;28;8405;-87
2022/06/28 14:49:46;;;;;;;;;;;;;;;;;;4980425;28;8578;-89
2022/06/28 14:52:12;;;;;;;;;;;;;;;;;;4979717;28;8716;-88
2022/06/28 14:54:37;;;;;;;;;;;;;;;;;;4935467;28;12364;-87
2022/06/28 14:57:04;;;;;;;;;;;;;;;;;;4977905;28;8565;-88
2022/06/28 14:59:31;;;;;;;;;;;;;;;;;;4917415;28;12071;-86
2022/06/28 15:01:56;;;;;;;;;;;;;;;;;;4978740;28;8615;-87
2022/06/28 15:04:22;;;;;;;;;;;;;;;;;;4978425;28;8430;-87
2022/06/28 15:06:47;;;;;;;;;;;;;;;;;;4977745;28;8617;-88
2022/06/28 15:09:12;;;;;;;;;;;;;;;;;;4978223;28;8757;-87
2022/06/28 15:11:38;;;;;;;;;;;;;;;;;;4978519;28;8613;-85
2022/06/28 15:14:04;;;;;;;;;;;;;;;;;;4977890;28;8424;-84
2022/06/28 15:16:30;;;;;;;;;;;;;;;;;;4978239;28;7093;-83
2022/06/28 15:18:57;;;;;;;;;;;;;;;;;;4991272;28;7210;-84
2022/06/28 15:32:19;;;;;;;;;;;;;;;;;;5016180;28;6829;-75
2022/06/28 15:34:45;;;;;;;;;;;;;;;;;;4998973;28;8463;-85
2022/06/28 15:37:10;;;;;;;;;;;;;;;;;;4998599;28;8368;-84
2022/06/28 15:39:36;;;;;;;;;;;;;;;;;;4999298;28;8468;-84
2022/06/28 15:42:01;;;;;;;;;;;;;;;;;;4998706;28;8537;-83
2022/06/28 15:44:27;;;;;;;;;;;;;;;;;;4998682;28;8586;-84
2022/06/28 15:46:53;;;;;;;;;;;;;;;;;;4998642;28;8431;-83
2022/06/28 15:49:19;;;;;;;;;;;;;;;;;;4998453;28;8395;-89
2022/06/28 15:51:45;;;;;;;;;;;;;;;;;;4999159;28;7173;-88
2022/06/28 15:54:10;;;;;;;;;;;;;;;;;;4998565;28;8433;-88
2022/06/28 15:56:36;;;;;;;;;;;;;;;;;;4999291;28;7187;-88
2022/06/28 15:59:01;;;;;;;;;;;;;;;;;;4998716;28;8675;-88
2022/06/28 16:01:27;;;;;;;;;;;;;;;;;;4980113;28;7072;-89
2022/06/28 16:03:52;;;;;;;;;;;;;;;;;;4975782;28;8509;-88
2022/06/28 16:06:18;;;;;;;;;;;;;;;;;;4975868;28;8510;-79
2022/06/28 16:08:43;;;;;;;;;;;;;;;;;;4975231;28;8510;-88
2022/06/28 16:11:09;;;;;;;;;;;;;;;;;;4975669;28;6913;-88
2022/06/28 16:13:34;;;;;;;;;;;;;;;;;;4975356;28;8469;-86
2022/06/28 16:16:00;;;;;;;;;;;;;;;;;;4975026;28;8479;-87
2022/06/28 16:18:25;;;;;;;;;;;;;;;;;;4974655;28;7106;-87
2022/06/28 16:20:51;;;;;;;;;;;;;;;;;;4974656;28;8382;-87
2022/06/28 16:23:17;;;;;;;;;;;;;;;;;;4974997;28;8909;-87
2022/06/28 16:25:42;;;;;;;;;;;;;;;;;;4979399;28;7089;-87
2022/06/28 16:28:09;;;;;;;;;;;;;;;;;;4975160;28;7507;-87
2022/06/28 16:30:34;;;;;;;;;;;;;;;;;;4991034;28;8851;-88
2022/06/28 16:33:00;;;;;;;;;;;;;;;;;;4991916;28;8418;-87
2022/06/28 16:35:26;;;;;;;;;;;;;;;;;;4991571;28;8414;-87
2022/06/28 16:37:52;;;;;;;;;;;;;;;;;;4990987;28;7162;-86
2022/06/28 16:40:23;;;;;;;;;;;;;;;;;;4991340;28;7190;-87
2022/06/28 16:42:49;;;;;;;;;;;;;;;;;;4991754;28;8693;-87
2022/06/28 16:45:15;;;;;;;;;;;;;;;;;;4991671;28;7184;-87
2022/06/28 16:47:41;;;;;;;;;;;;;;;;;;4991428;28;6851;-86
2022/06/28 16:50:08;;;;;;;;;;;;;;;;;;4991156;28;8562;-87
2022/06/28 16:52:33;;;;;;;;;;;;;;;;;;4990857;28;8443;-87
2022/06/28 16:54:59;;;;;;;;;;;;;;;;;;4990977;28;8502;-87
2022/06/28 16:57:26;;;;;;;;;;;;;;;;;;4991180;28;9173;-86
2022/06/28 16:59:51;;;;;;;;;;;;;;;;;;4990561;28;8524;-86
2022/06/28 17:02:17;;;;;;;;;;;;;;;;;;4957727;28;7075;-87
2022/06/28 17:04:43;;;;;;;;;;;;;;;;;;4991231;28;8400;-86
2022/06/28 17:07:20;;;;;;;;;;;;;;;;;;4990738;28;8716;-85
2022/06/28 17:09:46;;;;;;;;;;;;;;;;;;4989481;28;9045;-88
2022/06/28 17:12:12;;;;;;;;;;;;;;;;;;4989897;28;7197;-87
2022/06/28 17:14:37;;;;;;;;;;;;;;;;;;4988593;28;8493;-87
2022/06/28 17:17:03;;;;;;;;;;;;;;;;;;4973436;28;8092;-87
2022/06/28 17:19:28;;;;;;;;;;;;;;;;;;4990650;28;8720;-87
2022/06/28 17:21:54;;;;;;;;;;;;;;;;;;4990508;28;8425;-87
2022/06/28 17:24:20;;;;;;;;;;;;;;;;;;4990843;28;8832;-89